createdAt,value
2022-09-17T00:00:39.419Z,94.34
2022-09-17T00:03:25.217Z,93.36
2022-09-17T00:06:10.574Z,93.30
2022-09-17T00:08:55.286Z,93.96
2022-09-17T00:11:40.654Z,93.68
2022-09-17T00:14:24.000Z,92.94
2022-09-17T00:17:07.121Z,93.62
2022-09-17T00:19:54.124Z,93.10
2022-09-17T00:22:43.934Z,92.33
2022-09-17T00:25:26.990Z,92.47
2022-09-17T00:28:10.374Z,92.17
2022-09-17T00:30:53.551Z,92.01
2022-09-17T00:33:37.086Z,93.17
2022-09-17T00:36:22.766Z,94.13
2022-09-17T00:39:07.398Z,94.03
2022-09-17T00:41:50.520Z,93.43
2022-09-17T00:44:49.663Z,94.32
2022-09-17T00:47:36.582Z,93.64
2022-09-17T00:50:24.607Z,93.50
2022-09-17T00:53:13.534Z,93.35
2022-09-17T00:56:03.165Z,92.68
2022-09-17T00:58:46.334Z,93.15
2022-09-17T01:01:29.865Z,93.86
2022-09-17T01:04:17.874Z,95.59
2022-09-17T01:07:10.250Z,97.04
2022-09-17T01:09:59.197Z,98.31
2022-09-17T01:12:57.428Z,99.55
2022-09-17T01:15:47.781Z,99.68
2022-09-17T01:18:53.143Z,100.00
2022-09-17T01:21:51.529Z,100.00
2022-09-17T01:25:07.321Z,100.00
2022-09-17T01:28:19.842Z,98.43
2022-09-17T01:31:44.039Z,96.49
2022-09-17T01:34:35.279Z,97.66
2022-09-17T01:37:27.723Z,97.51
2022-09-17T01:40:23.539Z,97.23
2022-09-17T01:43:13.491Z,96.67
2022-09-17T01:46:02.193Z,96.17
2022-09-17T01:48:50.583Z,95.33
2022-09-17T01:51:40.800Z,94.44
2022-09-17T01:54:27.059Z,94.34
2022-09-17T01:57:16.558Z,93.44
2022-09-17T02:00:03.502Z,95.26
2022-09-17T02:02:52.014Z,96.00
2022-09-17T02:05:41.501Z,96.94
2022-09-17T02:08:27.346Z,97.48
2022-09-17T02:11:13.837Z,98.06
2022-09-17T02:14:00.420Z,98.01
2022-09-17T02:16:48.384Z,98.14
2022-09-17T02:19:36.640Z,97.19
2022-09-17T02:22:27.080Z,96.42
2022-09-17T02:25:16.089Z,97.83
2022-09-17T02:28:03.607Z,95.35
2022-09-17T02:30:47.028Z,96.01
2022-09-17T02:33:31.695Z,95.38
2022-09-17T02:36:15.126Z,95.82
2022-09-17T02:39:03.185Z,95.36
2022-09-17T02:41:56.523Z,94.87
2022-09-17T02:44:50.643Z,95.88
2022-09-17T02:47:47.527Z,97.91
2022-09-17T02:50:48.719Z,97.58
2022-09-17T02:53:40.684Z,96.01
2022-09-17T02:56:31.266Z,95.71
2022-09-17T02:59:20.924Z,95.69
2022-09-17T03:02:10.291Z,95.46
2022-09-17T03:04:54.345Z,95.33
2022-09-17T03:07:38.640Z,94.88
2022-09-17T03:10:21.772Z,94.67
2022-09-17T03:13:06.240Z,94.31
2022-09-17T03:15:49.363Z,93.66
2022-09-17T03:18:32.480Z,93.27
2022-09-17T03:21:15.522Z,92.59
2022-09-17T03:24:00.493Z,92.91
2022-09-17T03:26:44.078Z,92.01
2022-09-17T03:29:30.115Z,92.81
2022-09-17T03:32:13.330Z,91.01
2022-09-17T03:34:56.666Z,91.37
2022-09-17T03:37:39.770Z,90.65
2022-09-17T03:40:22.849Z,90.70
2022-09-17T03:43:06.225Z,89.48
2022-09-17T03:45:50.644Z,87.98
2022-09-17T03:48:37.165Z,87.88
2022-09-17T03:51:20.311Z,84.30
2022-09-17T03:54:03.422Z,84.12
2022-09-17T03:56:46.714Z,83.65
2022-09-17T03:59:29.966Z,84.05
2022-09-17T04:02:14.678Z,84.59
2022-09-17T04:04:57.892Z,83.92
2022-09-17T04:07:41.499Z,84.30
2022-09-17T04:10:24.634Z,84.91
2022-09-17T04:13:07.707Z,85.08
2022-09-17T04:15:51.529Z,84.91
2022-09-17T04:18:37.489Z,85.36
2022-09-17T04:21:20.739Z,85.52
2022-09-17T04:24:04.350Z,85.74
2022-09-17T04:26:47.434Z,85.94
2022-09-17T04:29:31.072Z,83.77
2022-09-17T04:32:14.384Z,84.23
2022-09-17T04:35:01.836Z,84.41
2022-09-17T04:37:44.914Z,85.11
2022-09-17T04:40:29.185Z,85.72
2022-09-17T04:43:12.391Z,85.87
2022-09-17T04:45:55.484Z,86.00
2022-09-17T04:48:38.666Z,85.96
2022-09-17T04:51:23.157Z,86.56
2022-09-17T04:54:09.083Z,86.88
2022-09-17T04:56:52.366Z,87.68
2022-09-17T04:59:35.537Z,87.65
2022-09-17T05:02:18.717Z,89.11
2022-09-17T05:05:01.767Z,89.74
2022-09-17T05:07:48.478Z,90.56
2022-09-17T05:10:31.640Z,88.82
2022-09-17T05:13:14.738Z,88.62
2022-09-17T05:15:57.895Z,88.70
2022-09-17T05:18:41.727Z,88.12
2022-09-17T05:21:25.123Z,88.48
2022-09-17T05:24:09.686Z,89.43
2022-09-17T05:26:52.984Z,90.02
2022-09-17T05:29:36.992Z,91.25
2022-09-17T05:32:20.031Z,90.32
2022-09-17T05:35:05.571Z,91.55
2022-09-17T05:37:49.098Z,91.30
2022-09-17T05:40:33.997Z,90.75
2022-09-17T05:43:17.448Z,91.00
2022-09-17T05:46:03.368Z,91.17
2022-09-17T05:48:46.422Z,89.96
2022-09-17T05:51:29.483Z,91.78
2022-09-17T05:54:12.584Z,91.24
2022-09-17T05:56:57.352Z,90.02
2022-09-17T05:59:40.783Z,89.90
2022-09-17T06:02:23.896Z,89.87
2022-09-17T06:05:07.706Z,91.38
2022-09-17T06:07:51.046Z,91.65
2022-09-17T06:10:36.856Z,89.67
2022-09-17T06:13:22.376Z,89.92
2022-09-17T06:16:05.776Z,91.28
2022-09-17T06:18:50.050Z,92.54
2022-09-17T06:21:33.181Z,91.41
2022-09-17T06:24:16.230Z,91.40
2022-09-17T06:26:59.514Z,91.72
2022-09-17T06:29:44.256Z,94.19
2022-09-17T06:32:27.554Z,94.35
2022-09-17T06:35:11.870Z,94.97
2022-09-17T06:37:54.997Z,94.13
2022-09-17T06:40:38.082Z,94.20
2022-09-17T06:43:21.192Z,94.45
2022-09-17T06:46:09.289Z,93.89
2022-09-17T06:48:52.531Z,94.00
2022-09-17T06:51:35.528Z,93.71
2022-09-17T06:54:18.664Z,93.20
2022-09-17T06:57:01.741Z,92.99
2022-09-17T06:59:45.440Z,90.59
2022-09-17T07:02:31.378Z,90.22
2022-09-17T07:05:14.474Z,89.01
2022-09-17T07:07:57.787Z,87.79
2022-09-17T07:10:40.926Z,87.44
2022-09-17T07:13:24.003Z,86.52
2022-09-17T07:16:07.888Z,82.98
2022-09-17T07:18:52.342Z,60.60
2022-09-17T07:21:35.402Z,57.48
2022-09-17T07:24:18.498Z,44.09
2022-09-17T07:27:01.795Z,38.96
2022-09-17T07:29:45.286Z,36.98
2022-09-17T07:32:30.758Z,32.27
2022-09-17T07:35:15.545Z,29.74
2022-09-17T07:37:58.675Z,26.77
2022-09-17T07:40:41.995Z,25.50
2022-09-17T07:43:26.014Z,23.87
2022-09-17T07:46:13.331Z,22.25
2022-09-17T07:48:56.675Z,22.74
2022-09-17T07:51:44.124Z,24.30
2022-09-17T07:54:27.287Z,28.16
2022-09-17T07:57:10.328Z,33.56
2022-09-17T07:59:53.434Z,36.43
2022-09-17T08:02:36.572Z,39.03
2022-09-17T08:05:21.130Z,41.29
2022-09-17T08:08:05.675Z,43.86
2022-09-17T08:10:48.711Z,45.98
2022-09-17T08:13:32.724Z,48.26
2022-09-17T08:16:16.140Z,48.32
2022-09-17T08:18:59.778Z,49.04
2022-09-17T08:21:42.860Z,50.12
2022-09-17T08:24:30.170Z,49.57
2022-09-17T08:27:13.259Z,47.03
2022-09-17T08:29:56.341Z,45.88
2022-09-17T08:32:39.445Z,48.90
2022-09-17T08:35:22.510Z,45.67
2022-09-17T08:38:05.575Z,44.00
2022-09-17T08:41:00.851Z,47.55
2022-09-17T08:43:52.434Z,49.03
2022-09-17T08:46:41.871Z,51.16
2022-09-17T08:49:33.647Z,51.39
2022-09-17T08:52:48.097Z,51.21
2022-09-17T08:55:41.281Z,52.40
2022-09-17T08:58:52.733Z,54.99
2022-09-17T09:01:43.683Z,55.50
2022-09-17T09:04:40.695Z,57.11
2022-09-17T09:07:27.296Z,59.99
2022-09-17T09:10:18.720Z,61.62
2022-09-17T09:13:02.762Z,63.66
2022-09-17T09:15:53.286Z,62.02
2022-09-17T09:18:40.328Z,63.36
2022-09-17T09:21:29.345Z,65.67
2022-09-17T09:24:24.722Z,67.16
2022-09-17T09:27:18.491Z,70.75
2022-09-17T09:30:05.694Z,72.43
2022-09-17T09:32:59.367Z,74.92
2022-09-17T09:35:44.448Z,75.79
2022-09-17T09:38:34.654Z,76.31
2022-09-17T09:41:20.954Z,76.73
2022-09-17T09:44:07.043Z,75.21
2022-09-17T09:47:12.404Z,76.75
2022-09-17T09:50:42.952Z,79.02
2022-09-17T09:53:43.021Z,80.52
2022-09-17T09:56:39.863Z,83.60
2022-09-17T09:59:23.070Z,84.54
2022-09-17T10:02:06.554Z,83.37
2022-09-17T10:04:53.568Z,87.33
2022-09-17T10:07:46.746Z,86.55
2022-09-17T10:10:29.880Z,87.65
2022-09-17T10:13:15.017Z,90.49
2022-09-17T10:15:58.743Z,88.96
2022-09-17T10:18:41.866Z,90.66
2022-09-17T10:21:32.567Z,89.92
2022-09-17T10:24:25.057Z,93.25
2022-09-17T10:27:15.097Z,94.51
2022-09-17T10:30:15.260Z,96.40
2022-09-17T10:33:19.542Z,96.07
2022-09-17T10:36:06.402Z,91.46
2022-09-17T10:38:49.632Z,89.20
2022-09-17T10:41:34.198Z,88.87
2022-09-17T10:44:19.238Z,88.66
2022-09-17T10:47:08.064Z,90.33
2022-09-17T10:49:56.419Z,90.61
2022-09-17T10:52:43.213Z,91.05
2022-09-17T10:55:33.380Z,91.41
2022-09-17T10:58:31.697Z,90.32
2022-09-17T11:01:29.801Z,90.09
2022-09-17T11:04:26.978Z,86.28
2022-09-17T11:07:35.310Z,85.01
2022-09-17T11:10:28.557Z,79.34
2022-09-17T11:13:22.794Z,76.03
2022-09-17T11:16:23.049Z,75.35
2022-09-17T11:19:15.876Z,73.55
2022-09-17T11:22:08.718Z,73.24
2022-09-17T11:25:16.420Z,69.25
2022-09-17T11:28:21.505Z,68.21
2022-09-17T11:31:24.085Z,68.19
2022-09-17T11:34:53.906Z,69.25
2022-09-17T11:37:41.698Z,68.52
2022-09-17T11:40:33.590Z,72.08
2022-09-17T11:43:25.208Z,77.78
2022-09-17T11:46:14.521Z,81.38
2022-09-17T11:49:06.446Z,83.28
2022-09-17T11:51:52.838Z,83.29
2022-09-17T11:54:42.102Z,84.37
2022-09-17T11:57:28.819Z,86.16
2022-09-17T12:00:28.342Z,87.79
2022-09-17T12:03:20.263Z,85.43
2022-09-17T12:06:11.195Z,85.11
2022-09-17T12:09:00.849Z,85.57
2022-09-17T12:12:45.021Z,84.54
2022-09-17T12:15:23.255Z,87.02
2022-09-17T12:18:31.818Z,86.32
2022-09-17T12:21:24.847Z,85.19
2022-09-17T12:24:18.001Z,86.39
2022-09-17T12:27:15.059Z,86.40
2022-09-17T12:30:22.578Z,87.23
2022-09-17T12:33:26.421Z,83.40
2022-09-17T12:36:31.559Z,83.99
2022-09-17T12:39:41.330Z,83.45
2022-09-17T12:42:36.401Z,84.79
2022-09-17T12:45:58.326Z,87.61
2022-09-17T12:53:05.876Z,86.88
2022-09-17T12:56:03.233Z,88.51
2022-09-17T12:59:04.623Z,90.43
2022-09-17T13:01:54.152Z,89.28
2022-09-17T13:05:02.683Z,91.98
2022-09-17T13:08:09.124Z,86.52
2022-09-17T13:11:30.460Z,86.40
2022-09-17T13:14:24.461Z,79.11
2022-09-17T13:17:12.480Z,76.12
2022-09-17T13:20:04.774Z,79.17
2022-09-17T13:22:50.642Z,75.62
2022-09-17T13:25:33.933Z,76.49
2022-09-17T13:28:18.650Z,77.19
2022-09-17T13:31:04.381Z,81.97
2022-09-17T13:33:56.139Z,82.72
2022-09-17T13:36:50.348Z,82.35
2022-09-17T13:39:47.093Z,81.68
2022-09-17T13:42:33.794Z,74.65
2022-09-17T13:45:22.918Z,78.91
2022-09-17T13:48:09.482Z,79.09
2022-09-17T13:50:55.263Z,78.44
2022-09-17T13:53:39.783Z,78.44
2022-09-17T13:56:34.081Z,79.56
2022-09-17T13:59:22.195Z,78.06
2022-09-17T14:05:44.950Z,80.56
2022-09-17T14:08:31.688Z,77.38
2022-09-17T14:11:40.522Z,76.68
2022-09-17T14:14:56.169Z,76.23
2022-09-17T14:17:52.189Z,77.98
2022-09-17T14:20:38.346Z,78.81
2022-09-17T14:23:22.937Z,79.33
2022-09-17T14:26:13.312Z,78.79
2022-09-17T14:29:10.759Z,76.75
2022-09-17T14:32:15.377Z,79.93
2022-09-17T14:34:59.001Z,78.40
2022-09-17T14:37:44.997Z,80.17
2022-09-17T14:40:32.068Z,81.25
2022-09-17T14:43:21.463Z,82.19
2022-09-17T14:46:06.320Z,82.38
2022-09-17T14:48:49.613Z,80.93
2022-09-17T14:51:35.519Z,77.66
2022-09-17T14:54:21.657Z,77.06
2022-09-17T14:57:27.414Z,79.33
2022-09-17T15:00:18.867Z,80.63
2022-09-17T15:03:02.153Z,79.53
2022-09-17T15:05:51.369Z,83.08
2022-09-17T15:08:34.628Z,84.22
2022-09-17T15:11:17.760Z,84.23
2022-09-17T15:14:08.273Z,83.03
2022-09-17T15:16:54.357Z,83.98
2022-09-17T15:19:40.455Z,83.03
2022-09-17T15:22:27.361Z,81.85
2022-09-17T15:25:16.597Z,82.11
2022-09-17T15:28:13.479Z,81.48
2022-09-17T15:30:58.207Z,78.55
2022-09-17T15:33:42.875Z,76.90
2022-09-17T15:36:27.517Z,81.03
2022-09-17T15:39:32.611Z,83.20
2022-09-17T15:42:21.174Z,80.21
2022-09-17T15:45:19.213Z,73.52
2022-09-17T15:48:07.895Z,80.27
2022-09-17T15:50:55.479Z,84.27
2022-09-17T15:53:38.629Z,80.67
2022-09-17T15:56:25.115Z,81.86
2022-09-17T15:59:26.441Z,72.94
2022-09-17T16:02:27.767Z,65.38
2022-09-17T16:05:55.698Z,75.83
2022-09-17T16:08:42.593Z,77.79
2022-09-17T16:11:27.070Z,81.36
2022-09-17T16:14:10.155Z,84.92
2022-09-17T16:16:54.971Z,79.37
2022-09-17T16:19:38.087Z,82.20
2022-09-17T16:22:21.205Z,84.52
2022-09-17T16:25:06.779Z,85.17
2022-09-17T16:27:53.466Z,80.85
2022-09-17T16:30:39.869Z,77.38
2022-09-17T16:33:22.995Z,72.65
2022-09-17T16:36:06.741Z,70.20
2022-09-17T16:38:49.847Z,75.55
2022-09-17T16:41:34.365Z,72.87
2022-09-17T16:44:19.822Z,73.70
2022-09-17T16:47:02.973Z,64.89
2022-09-17T16:49:46.377Z,66.98
2022-09-17T16:52:29.495Z,75.48
2022-09-17T16:55:14.488Z,70.83
2022-09-17T16:58:00.001Z,71.53
2022-09-17T17:00:44.330Z,76.62
2022-09-17T17:03:27.535Z,77.76
2022-09-17T17:06:17.331Z,77.85
2022-09-17T17:09:02.066Z,78.24
2022-09-17T17:11:45.667Z,77.58
2022-09-17T17:14:30.200Z,80.67
2022-09-17T17:17:19.047Z,82.12
2022-09-17T17:20:02.305Z,83.94
2022-09-17T17:22:46.581Z,84.18
2022-09-17T17:25:32.336Z,85.14
2022-09-17T17:28:15.731Z,78.31
2022-09-17T17:31:00.251Z,72.17
2022-09-17T17:33:43.332Z,70.14
2022-09-17T17:36:26.520Z,66.10
2022-09-17T17:39:09.936Z,65.15
2022-09-17T17:41:54.394Z,64.31
2022-09-17T17:44:37.555Z,65.21
2022-09-17T17:47:22.081Z,66.32
2022-09-17T17:50:05.807Z,63.39
2022-09-17T17:52:49.202Z,63.54
2022-09-17T17:55:32.329Z,62.57
2022-09-17T17:58:15.983Z,60.87
2022-09-17T18:00:59.110Z,60.03
2022-09-17T18:03:44.023Z,58.38
2022-09-17T18:06:28.005Z,58.75
2022-09-17T18:09:11.327Z,63.93
2022-09-17T18:11:54.504Z,70.41
2022-09-17T18:14:37.895Z,73.66
2022-09-17T18:17:21.092Z,76.34
2022-09-17T18:20:08.479Z,77.50
2022-09-17T18:22:51.569Z,78.79
2022-09-17T18:25:34.618Z,79.81
2022-09-17T18:28:17.914Z,80.54
2022-09-17T18:31:06.137Z,81.86
2022-09-17T18:33:57.677Z,82.90
2022-09-17T18:36:45.528Z,83.67
2022-09-17T18:42:35.231Z,84.15
2022-09-17T18:45:21.287Z,84.95
2022-09-17T18:48:05.667Z,88.00
2022-09-17T18:50:57.595Z,87.29
2022-09-17T18:53:48.286Z,87.33
2022-09-17T18:56:34.217Z,87.63
2022-09-17T18:59:17.347Z,88.75
2022-09-17T19:02:00.730Z,89.59
2022-09-17T19:04:46.697Z,88.80
2022-09-17T19:07:29.914Z,89.19
2022-09-17T19:10:15.765Z,89.46
2022-09-17T19:12:58.836Z,88.09
2022-09-17T19:15:42.235Z,88.17
2022-09-17T19:18:25.501Z,90.28
2022-09-17T19:21:11.735Z,90.29
2022-09-17T19:23:55.008Z,90.43
2022-09-17T19:26:39.976Z,90.86
2022-09-17T19:29:23.279Z,91.18
2022-09-17T19:32:06.804Z,91.41
2022-09-17T19:34:51.124Z,92.16
2022-09-17T19:37:34.402Z,92.45
2022-09-17T19:40:17.710Z,89.91
2022-09-17T19:43:04.820Z,91.89
2022-09-17T19:45:47.900Z,92.80
2022-09-17T19:48:43.941Z,92.45
2022-09-17T19:51:51.936Z,93.29
2022-09-17T19:54:43.652Z,92.64
2022-09-17T19:57:26.800Z,93.00
2022-09-17T20:00:16.177Z,92.88
2022-09-17T20:03:17.200Z,93.53
2022-09-17T20:06:01.180Z,94.09
2022-09-17T20:08:48.088Z,94.47
2022-09-17T20:11:31.159Z,94.95
2022-09-17T20:14:14.248Z,95.85
2022-09-17T20:16:58.670Z,96.83
2022-09-17T20:19:42.121Z,96.51
2022-09-17T20:22:25.237Z,97.68
2022-09-17T20:25:10.113Z,98.49
2022-09-17T20:27:54.483Z,99.03
2022-09-17T20:30:37.670Z,99.66
2022-09-17T20:33:24.192Z,99.27
2022-09-17T20:36:11.986Z,99.65
2022-09-17T20:39:15.480Z,99.86
2022-09-17T20:41:59.026Z,100.00
2022-09-17T20:44:42.131Z,100.00
2022-09-17T20:47:25.510Z,100.00
2022-09-17T20:50:10.591Z,100.00
2022-09-17T20:52:53.879Z,100.00
2022-09-17T20:55:36.953Z,100.00
2022-09-17T20:58:20.268Z,100.00
2022-09-17T21:01:08.901Z,100.00
2022-09-17T21:03:53.836Z,100.00
2022-09-17T21:06:41.067Z,100.00
2022-09-17T21:09:24.131Z,100.00
2022-09-17T21:12:07.667Z,100.00
2022-09-17T21:14:50.727Z,99.86
2022-09-17T21:17:34.739Z,100.00
2022-09-17T21:20:17.985Z,100.00
2022-09-17T21:23:02.479Z,97.78
2022-09-17T21:25:45.832Z,97.73
2022-09-17T21:28:32.983Z,95.86
2022-09-17T21:31:18.042Z,97.54
2022-09-17T21:34:02.699Z,97.08
2022-09-17T21:36:46.616Z,96.50
2022-09-17T21:39:34.977Z,96.70
2022-09-17T21:42:18.035Z,97.77
2022-09-17T21:45:01.217Z,98.33
2022-09-17T21:47:44.450Z,96.19
2022-09-17T21:50:27.484Z,95.88
2022-09-17T21:53:10.598Z,95.54
2022-09-17T21:55:55.074Z,95.35
2022-09-17T21:58:38.486Z,93.84
2022-09-17T22:01:23.524Z,93.80
2022-09-17T22:04:07.425Z,93.40
2022-09-17T22:06:51.416Z,92.97
2022-09-17T22:09:34.485Z,91.09
2022-09-17T22:12:21.342Z,89.56
2022-09-17T22:15:04.944Z,85.81
2022-09-17T22:17:47.975Z,87.85
2022-09-17T22:20:31.359Z,88.89
2022-09-17T22:23:14.406Z,89.42
2022-09-17T22:26:04.168Z,89.16
2022-09-17T22:28:49.033Z,89.36
2022-09-17T22:31:32.560Z,90.02
2022-09-17T22:34:17.957Z,89.62
2022-09-17T22:37:01.117Z,88.37
2022-09-17T22:39:44.482Z,86.17
2022-09-17T22:42:27.536Z,86.24
2022-09-17T22:45:12.286Z,86.22
2022-09-17T22:47:55.316Z,86.67
2022-09-17T22:50:38.315Z,85.90
2022-09-17T22:53:21.380Z,86.00
2022-09-17T22:56:06.577Z,84.60
2022-09-17T22:58:50.312Z,83.17
2022-09-17T23:01:36.388Z,81.65
2022-09-17T23:04:19.650Z,81.76
2022-09-17T23:07:02.736Z,80.41
2022-09-17T23:09:45.791Z,80.52
2022-09-17T23:12:28.928Z,80.62
2022-09-17T23:15:12.078Z,80.73
2022-09-17T23:17:56.571Z,79.44
2022-09-17T23:20:39.732Z,79.96
2022-09-17T23:23:24.594Z,80.12
2022-09-17T23:26:09.866Z,80.50
2022-09-17T23:28:53.247Z,80.34
2022-09-17T23:31:36.617Z,77.67
2022-09-17T23:34:21.401Z,77.92
2022-09-17T23:37:04.562Z,79.63
2022-09-17T23:39:47.603Z,80.12
2022-09-17T23:42:31.042Z,78.57
2022-09-17T23:45:14.484Z,80.40
2022-09-17T23:47:58.802Z,80.06
2022-09-17T23:50:44.020Z,80.63
2022-09-17T23:53:27.205Z,81.59
2022-09-17T23:56:14.329Z,81.54
2022-09-17T23:59:00.251Z,81.69
